Jacobsburg, Ohio
Current Conditions -  °F | °C
As of 9:53 AM on Wednesday 22 Oct 2014 (Local Time) from KHLG Reporting Station
Overcast Overcast  
Wind Chill: 42°   Ceiling: 900
Heat Index: 47°   Visibility: 10mi
Dew Point: 43°   Wind: 12mph
Humidity: 86%   Direction: 350°N
Pressure: 30.16"   Gusts: NA
Location:  39.97°N, 80.9°W
Report Text: KHLG 221353Z 35010KT 10SM OVC009 08/06 A3016 RMK AO2 SLP220 T00830061
Loading
Personal Weather Stations






























Interactive Weather Map
Tropical Storm Tracking
New forecast layout! Learn more

10-Day Weather Forecast

Advertisements
Track Severe Weather on mobile